createdAt,value
2022-10-07T00:04:52.887Z,8.59403
2022-10-07T00:09:53.814Z,8.54364
2022-10-07T00:14:54.792Z,8.48549
2022-10-07T00:19:55.929Z,8.50811
2022-10-07T00:24:56.883Z,8.47483
2022-10-07T00:29:57.899Z,8.41766
2022-10-07T00:34:58.847Z,8.42767
2022-10-07T00:39:59.834Z,8.37631
2022-10-07T00:45:00.792Z,8.37922
2022-10-07T00:50:01.997Z,8.3524
2022-10-07T00:55:02.963Z,8.34982
2022-10-07T01:00:03.917Z,8.31332
2022-10-07T01:05:05.104Z,8.2374
2022-10-07T01:10:06.356Z,8.22771
2022-10-07T01:15:07.327Z,8.13823
2022-10-07T01:20:08.521Z,8.10367
2022-10-07T01:25:09.438Z,8.08558
2022-10-07T01:30:10.370Z,8.01516
2022-10-07T01:35:11.311Z,7.99578
2022-10-07T01:40:12.316Z,7.9877
2022-10-07T01:45:13.218Z,7.84815
2022-10-07T01:50:14.332Z,7.85752
2022-10-07T01:55:15.282Z,7.81875
2022-10-07T02:00:16.243Z,7.72572
2022-10-07T02:05:17.279Z,7.69374
2022-10-07T02:10:18.469Z,7.62946
2022-10-07T02:15:19.597Z,7.59037
2022-10-07T02:20:20.706Z,7.54708
2022-10-07T02:25:21.756Z,7.54676
2022-10-07T02:30:22.891Z,7.57357
2022-10-07T02:35:23.875Z,7.57616
2022-10-07T02:40:24.828Z,7.58488
2022-10-07T02:45:26.913Z,7.50025
2022-10-07T02:50:28.432Z,7.4618
2022-10-07T02:55:29.371Z,7.45082
2022-10-07T03:00:30.356Z,7.43209
2022-10-07T03:05:31.294Z,7.39009
2022-10-07T03:10:32.267Z,7.34099
2022-10-07T03:15:33.395Z,7.3145
2022-10-07T03:20:34.549Z,7.24634
2022-10-07T03:25:35.460Z,7.23148
2022-10-07T03:30:36.471Z,7.24957
2022-10-07T03:35:37.400Z,7.25636
2022-10-07T03:40:38.322Z,7.24473
2022-10-07T03:45:39.237Z,7.20596
2022-10-07T03:50:40.393Z,7.14362
2022-10-07T03:55:41.414Z,7.10486
2022-10-07T04:00:42.365Z,7.10712
2022-10-07T04:05:43.339Z,7.08224
2022-10-07T04:10:44.285Z,7.09258
2022-10-07T04:15:45.275Z,7.04542
2022-10-07T04:20:46.453Z,6.99115
2022-10-07T04:25:47.398Z,6.98501
2022-10-07T04:30:48.381Z,6.94399
2022-10-07T04:35:49.332Z,6.87454
2022-10-07T04:40:50.348Z,6.86872
2022-10-07T04:45:51.296Z,6.83739
2022-10-07T04:50:52.895Z,6.81736
2022-10-07T04:55:53.854Z,6.8277
2022-10-07T05:00:54.814Z,6.84159
2022-10-07T05:05:55.860Z,6.78183
2022-10-07T05:10:56.779Z,6.74048
2022-10-07T05:15:57.796Z,6.72433
2022-10-07T05:20:59.109Z,6.69138
2022-10-07T05:26:00.024Z,6.67168
2022-10-07T05:31:00.988Z,6.66618
2022-10-07T05:36:02.158Z,6.64325
2022-10-07T05:41:03.108Z,6.64293
2022-10-07T05:46:04.142Z,6.61127
2022-10-07T05:51:05.873Z,6.64067
2022-10-07T05:56:06.933Z,6.63614
2022-10-07T06:01:12.976Z,6.6678
2022-10-07T06:06:15.238Z,6.73434
2022-10-07T06:11:16.235Z,6.77763
2022-10-07T06:16:17.292Z,6.85935
2022-10-07T06:21:18.425Z,6.94076
2022-10-07T06:26:19.425Z,7.01053
2022-10-07T06:31:20.626Z,7.1391
2022-10-07T06:36:22.015Z,7.25926
2022-10-07T06:41:23.309Z,7.24602
2022-10-07T06:46:24.463Z,7.35197
2022-10-07T06:51:26.191Z,7.50444
2022-10-07T06:56:27.180Z,7.70279
2022-10-07T07:01:28.359Z,7.87108
2022-10-07T07:06:29.430Z,8.03712
2022-10-07T07:11:30.433Z,8.19089
2022-10-07T07:16:31.413Z,8.29684
2022-10-07T07:21:32.546Z,8.49615
2022-10-07T07:26:33.492Z,8.68222
2022-10-07T07:31:34.521Z,8.86441
2022-10-07T07:36:35.451Z,8.97521
2022-10-07T07:41:36.368Z,9.09215
2022-10-07T07:46:37.283Z,9.28307
2022-10-07T07:51:39.103Z,9.51727
2022-10-07T07:56:40.112Z,9.77538
2022-10-07T08:01:41.516Z,12.50283
2022-10-07T08:06:42.542Z,12.17397
2022-10-07T08:11:43.484Z,12.34454
2022-10-07T08:16:44.473Z,15.79863
2022-10-07T08:21:45.632Z,21.99383
2022-10-07T08:26:46.684Z,19.41212
2022-10-07T08:31:47.652Z,22.62028
2022-10-07T08:36:48.563Z,31.30357
2022-10-07T08:41:49.571Z,27.05601
2022-10-07T08:46:50.551Z,22.00998
2022-10-07T08:51:51.683Z,19.9397
2022-10-07T08:56:52.680Z,19.50936
2022-10-07T09:01:53.628Z,18.3111
2022-10-07T09:06:54.709Z,18.9162
2022-10-07T09:11:55.660Z,18.30948
2022-10-07T09:16:56.585Z,20.12773
2022-10-07T09:21:57.773Z,23.13948
2022-10-07T09:26:58.696Z,22.3896
2022-10-07T09:31:59.624Z,24.85767
2022-10-07T09:37:00.581Z,23.72168
2022-10-07T09:42:01.812Z,22.07977
2022-10-07T09:47:02.758Z,22.31174
2022-10-07T09:52:03.935Z,26.82758
2022-10-07T09:57:05.113Z,26.92224
2022-10-07T10:02:06.380Z,26.70544
2022-10-07T10:07:07.332Z,24.0186
2022-10-07T10:12:08.275Z,22.30302
2022-10-07T10:17:09.188Z,21.30922
2022-10-07T10:22:10.312Z,20.791
2022-10-07T10:27:11.272Z,20.18717
2022-10-07T10:32:12.179Z,19.98041
2022-10-07T10:37:14.652Z,19.5239
2022-10-07T10:42:15.781Z,19.51098
2022-10-07T10:47:16.719Z,19.16012
2022-10-07T10:52:20.116Z,18.84384
2022-10-07T10:57:22.154Z,18.71719
2022-10-07T11:02:23.141Z,18.76145
2022-10-07T11:07:24.119Z,18.6781
2022-10-07T11:12:25.102Z,18.38379
2022-10-07T11:17:26.049Z,18.35342
2022-10-07T11:22:27.211Z,18.29074
2022-10-07T11:27:28.168Z,18.17638
2022-10-07T11:32:29.099Z,18.26005
2022-10-07T11:37:30.040Z,18.39348
2022-10-07T11:42:30.978Z,18.51075
2022-10-07T11:47:31.913Z,18.41997
2022-10-07T11:52:37.086Z,18.21224
2022-10-07T11:57:39.220Z,18.31982
2022-10-07T12:02:40.205Z,18.39315
2022-10-07T12:07:41.201Z,18.5408
2022-10-07T12:12:42.383Z,18.99762
2022-10-07T12:17:43.609Z,19.08969
2022-10-07T12:22:45.042Z,19.21795
2022-10-07T12:27:46.152Z,19.30841
2022-10-07T12:32:47.469Z,19.86442
2022-10-07T12:37:48.707Z,20.11868
2022-10-07T12:42:49.689Z,20.33966
2022-10-07T12:47:50.612Z,20.61977
2022-10-07T12:52:51.967Z,21.02168
2022-10-07T12:57:52.940Z,21.34831
2022-10-07T13:02:54.030Z,21.56445
2022-10-07T13:07:55.033Z,21.87623
2022-10-07T13:12:55.995Z,22.1502
2022-10-07T13:17:56.931Z,22.25585
2022-10-07T13:22:58.432Z,22.03421
2022-10-07T13:27:59.465Z,21.84392
2022-10-07T13:33:00.512Z,21.76056
2022-10-07T13:38:01.457Z,21.66687
2022-10-07T13:43:02.389Z,21.4601
2022-10-07T13:48:03.331Z,21.24913
2022-10-07T13:53:04.524Z,21.04526
2022-10-07T13:58:05.762Z,20.7322
2022-10-07T14:03:07.000Z,20.46373
2022-10-07T14:08:07.951Z,20.14905
2022-10-07T14:13:09.059Z,19.95747
2022-10-07T14:18:10.003Z,19.51324
2022-10-07T14:23:11.091Z,19.22571
2022-10-07T14:28:12.137Z,19.19243
2022-10-07T14:33:13.100Z,18.99083
2022-10-07T14:38:14.020Z,18.98147
2022-10-07T14:43:14.972Z,18.82413
2022-10-07T14:48:15.908Z,18.84901
2022-10-07T14:53:16.996Z,18.90296
2022-10-07T14:58:17.959Z,18.76145
2022-10-07T15:03:18.940Z,18.58344
2022-10-07T15:08:19.846Z,18.40802
2022-10-07T15:13:20.794Z,18.31756
2022-10-07T15:18:21.715Z,18.23873
2022-10-07T15:23:23.264Z,18.0352
2022-10-07T15:28:24.383Z,17.89305
2022-10-07T15:33:25.429Z,17.86591
2022-10-07T15:38:26.379Z,17.80646
2022-10-07T15:43:27.306Z,17.55027
2022-10-07T15:48:28.282Z,17.37969
2022-10-07T15:53:29.409Z,17.31573
2022-10-07T15:58:30.467Z,17.34448
2022-10-07T16:03:31.530Z,17.35676
2022-10-07T16:08:32.512Z,17.25338
2022-10-07T16:13:33.399Z,17.1319
2022-10-07T16:18:34.304Z,16.91319
2022-10-07T16:23:35.456Z,16.6192
2022-10-07T16:28:36.429Z,16.39564
2022-10-07T16:33:37.380Z,16.17467
2022-10-07T16:38:38.329Z,15.95402
2022-10-07T16:43:39.284Z,15.79636
2022-10-07T16:48:40.200Z,15.54309
2022-10-07T16:53:41.324Z,15.33924
2022-10-07T16:58:42.260Z,15.15283
2022-10-07T17:03:43.205Z,14.98064
2022-10-07T17:08:47.528Z,14.78519
2022-10-07T17:13:49.250Z,14.61042
2022-10-07T17:18:50.162Z,14.45891
2022-10-07T17:23:51.259Z,14.34325
2022-10-07T17:28:52.205Z,14.17979
2022-10-07T17:33:53.123Z,14.02278
2022-10-07T17:38:54.027Z,13.86513
2022-10-07T17:43:54.966Z,13.75562
2022-10-07T17:48:55.914Z,13.63738
2022-10-07T17:53:57.028Z,13.55145
2022-10-07T17:58:57.982Z,13.42029
2022-10-07T18:03:59.001Z,13.28073
2022-10-07T18:08:59.933Z,13.13827
2022-10-07T18:14:00.871Z,12.98191
2022-10-07T18:19:01.925Z,12.88467
2022-10-07T18:24:03.054Z,12.79616
2022-10-07T18:29:04.004Z,12.71281
2022-10-07T18:34:04.934Z,12.59748
2022-10-07T18:39:06.209Z,12.51058
2022-10-07T18:44:07.275Z,12.42045
2022-10-07T18:49:08.180Z,12.30254
2022-10-07T18:54:09.410Z,12.21693
2022-10-07T18:59:10.355Z,12.15362
2022-10-07T19:04:11.312Z,12.05476
2022-10-07T19:09:12.240Z,12.01923
2022-10-07T19:14:13.162Z,11.9501
2022-10-07T19:19:14.077Z,11.84478
2022-10-07T19:24:15.218Z,11.79084
2022-10-07T19:29:16.156Z,11.78276
2022-10-07T19:34:17.097Z,11.74981
2022-10-07T19:39:18.015Z,11.68649
2022-10-07T19:44:18.959Z,11.63351
2022-10-07T19:49:19.904Z,11.57213
2022-10-07T19:54:21.039Z,11.53725
2022-10-07T19:59:21.997Z,11.47845
2022-10-07T20:04:22.905Z,11.39478
2022-10-07T20:09:23.827Z,11.32501
2022-10-07T20:14:24.808Z,11.24004
2022-10-07T20:19:25.773Z,11.13247
2022-10-07T20:24:26.918Z,11.08821
2022-10-07T20:29:28.156Z,11.05494
2022-10-07T20:34:29.083Z,11.10792
2022-10-07T20:39:30.014Z,11.21452
2022-10-07T20:44:30.975Z,11.59701
2022-10-07T20:49:32.069Z,11.68682
2022-10-07T20:54:33.336Z,11.32145
2022-10-07T20:59:34.872Z,11.08175
2022-10-07T21:04:35.947Z,10.99066
2022-10-07T21:09:36.888Z,10.8889
2022-10-07T21:14:37.828Z,10.88114
2022-10-07T21:19:38.786Z,10.85078
2022-10-07T21:24:40.507Z,10.8104
2022-10-07T21:29:43.228Z,10.84432
2022-10-07T21:34:45.821Z,10.85336
2022-10-07T21:39:46.795Z,10.87759
2022-10-07T21:44:47.711Z,10.83883
2022-10-07T21:49:48.632Z,10.8301
2022-10-07T21:54:49.743Z,10.79069
2022-10-07T21:59:50.652Z,10.77712
2022-10-07T22:04:51.586Z,10.76937
2022-10-07T22:09:52.504Z,10.77648
2022-10-07T22:14:53.405Z,10.80329
2022-10-07T22:19:54.325Z,10.74837
2022-10-07T22:24:55.443Z,10.6198
2022-10-07T22:29:56.351Z,10.56747
2022-10-07T22:34:57.310Z,10.54841
2022-10-07T22:39:58.285Z,10.4221
2022-10-07T22:44:59.199Z,10.35943
2022-10-07T22:50:00.172Z,10.38011
2022-10-07T22:55:01.363Z,10.28319
2022-10-07T23:00:02.381Z,10.21471
2022-10-07T23:05:03.317Z,10.18176
2022-10-07T23:10:04.263Z,10.1459
2022-10-07T23:15:05.263Z,10.09874
2022-10-07T23:20:06.667Z,10.04479
2022-10-07T23:25:07.842Z,10.1963
2022-10-07T23:30:08.774Z,10.07839
